LKKO weather

Kolín Airport
Kolín, Central Bohemian Region, Czechia

Public forecast

Using degrees Celsius for public forecast. Weather courtesy of forecast.io.

METAR (pilot weather report)

Closest report is Čáslav Air Base, 8.9 nm (16.4 km) ESE. Retrieved 2019/05/20 07:00 UTC (1 hour ago):

LKCV 200700Z 26003KT 7000 -RA NSC 13/13 Q1001 NOSIG RMK WHT WHT

TAF (pilot weather forecast)

Closest forecast is Čáslav Air Base, 8.9 nm (16.4 km) ESE. Retrieved 2019/05/20 06:00 UTC (2 hours ago):

TAF LKCV 200500Z 2006/2106 16004KT 9999 RA SCT020 BKN030 TEMPO 2006/2013 5000 RA BKN008 OVC025 PROB30 TEMPO 2009/2016 16014G24KT 3000 TSRA SCT015CB BKN025 BECMG 2010/2013 15013KT 9999 NSW BKN030 TEMPO 2013/2020 7000 SHRA FEW020TCU BKN022